logo
Search for airport 
image banner adimage banner adimage banner ad
image banner ad

FABALL - Ballito Bay -Dophin Coast-

Located in , South Africa

ICAO - , IATA -

Data provided by Airmate  

General information

Coordinates: S29°29'20" E31°10'44"
Elevation is 200 feet MSL.
 
View others Airports in Kwazulu-Natal

Operational data

Special qualification required
Current time UTC:
Current local time:
Weather at : FALE - King Shaka International ( 15 km )
METAR: FALE 140300Z VRB01KT 9999 FEW048 15/14 Q1020 NOSIG
TAF: TAF FALE 132200Z 1400/1506 VRB03KT 9999 SCT030 BKN040 TX25/1412Z TN16/1403Z BECMG 1410/1412 06015KT SCT035 PROB30 TEMPO 1415/1421 5000 SHRA BKN020 FEW030TCU BECMG 1416/1418 01005KT
View NOTAMs / SUP AIP / TFR affecting this airport [VIEW]
Communications frequencies: [VIEW]

Runways:

RWY identifierQFULength (ft)Width (ft)SurfaceLDA (ft)
0880°177266GRASS
26260°177266GRASS

Airport contact information

Address: South Africa

Satellite view of FABALL